La Palma > ESTACION METEOROLÓGICA Tijarafe

DATOS ACTUALES Online

Ultima actulizacion 5 minutos

21.9 ºC

Temperatura

63

Humedad (%)

1015.9

Presión (mb)

0

Precipitación (mm)

0 ENE

Viento (Km/h)

DATOS DIARIOS

Temperatura últimas 24 horas (ºC)

Humedad últimas 24 horas (%)

Presión atmosférica últimas 24 horas (mb)

Precipitaciones últimas 23 horas (mm)

Viento últimas 24 horas (Km/h)

Hora Temperatura (°C) ºC Precipitación (mm) mm Presión (mb) mb Humedad (%) % Viento (Km/h) km/h
15 - 22:00 20.8 1 1017 72 1.6 ENE
15 - 23:00 21.3 1 1017 65 0 ENE
16 - 00:00 20.2 0 1017 77 3.2 NE
16 - 01:00 20.7 0 1017 65 3.2 E
16 - 02:00 21.4 0 1016 56 3.2 E
16 - 03:00 20.4 0 1016 63 9.7 ENE
16 - 04:00 18.1 0 1016 89 4.8 NE
16 - 05:00 17.8 0 1016 92 1.6 E
16 - 06:00 21.8 0 1016 52 4.8 ENE
16 - 07:00 22.7 0 1016 47 0 NW
16 - 08:00 22.2 0 1016 50 0 SSE
16 - 09:00 22 0 1016 72 0 ESE
16 - 10:00 21.4 0 1016 79 0 SW
16 - 11:00 22.2 0 1016 81 4.8 W
16 - 12:00 22.9 0 1017 81 1.6 W
16 - 13:00 24.4 0 1016 73 1.6 NW
16 - 14:00 23.8 0 1016 78 0 SW
16 - 15:00 23.4 0 1016 81 6.4 SE
16 - 16:00 22.9 0 1016 82 6.4 SW
16 - 17:00 23.9 0 1015 80 3.2 WSW
16 - 18:00 24.4 0 1015 78 1.6 SSW
16 - 19:00 23.4 0 1015 81 1.6 WSW
16 - 20:00 20.6 0 1015 88 6.4 SW
16 - 21:00 19.3 0 1015 94 3.2 SSE
16 - 22:00 21.9 0 1016 63 0 ENE
Apalmet utiliza cookies propias y de terceros para mejorar la usabilidad y la experiencia web. Política de cookies.